Time;durP1;ratioP1;P1;durP2;ratioP2;P2;SDS_P1;SDS_P2;PMS_P1;PMS_P2;Temp;Humidity;BMP_temperature;BMP_pressure;BME280_temperature;BME280_humidity;BME280_pressure;Samples;Min_cycle;Max_cycle;Signal;HPM_P1;HPM_P2
2023/02/05 00:02:17;;;;;;;3.45;2.70;;;;;;;2.58;100.00;100027.84;5074155;28;20020;-70
2023/02/05 00:04:43;;;;;;;3.40;2.65;;;;;;;3.18;100.00;100102.56;5073338;28;20051;-70
2023/02/05 00:07:08;;;;;;;3.35;2.67;;;;;;;3.07;100.00;100089.97;5074146;28;20104;-70
2023/02/05 00:09:35;;;;;;;4.55;2.70;;;;;;;2.53;100.00;100042.03;5074257;28;20048;-70
2023/02/05 00:12:01;;;;;;;3.63;2.90;;;;;;;3.53;100.00;100145.41;5074233;28;20028;-69
2023/02/05 00:14:26;;;;;;;4.10;3.22;;;;;;;3.23;100.00;100136.91;5074268;28;20028;-70
2023/02/05 00:16:52;;;;;;;4.40;3.60;;;;;;;3.13;100.00;100169.53;5073455;28;20123;-70
2023/02/05 00:19:18;;;;;;;4.53;3.50;;;;;;;3.50;100.00;100168.84;5072115;28;20093;-70
2023/02/05 00:21:44;;;;;;;5.65;4.20;;;;;;;2.93;100.00;100071.47;5073437;28;20040;-71
2023/02/05 00:24:10;;;;;;;5.70;4.28;;;;;;;3.49;100.00;100169.66;5074632;28;20107;-70
2023/02/05 00:26:36;;;;;;;6.00;4.50;;;;;;;3.29;100.00;100171.25;5075658;28;20035;-70
2023/02/05 00:29:01;;;;;;;5.93;4.50;;;;;;;3.19;100.00;100172.06;5077006;28;20078;-70
2023/02/05 00:31:27;;;;;;;5.10;4.28;;;;;;;3.32;100.00;100179.66;5074083;28;20020;-70
2023/02/05 00:33:54;;;;;;;5.03;3.88;;;;;;;3.47;100.00;100182.22;5073686;28;20376;-70
2023/02/05 00:36:21;;;;;;;5.60;4.43;;;;;;;2.89;100.00;100091.56;5072082;28;20031;-70
2023/02/05 00:38:47;;;;;;;8.05;5.60;;;;;;;3.15;100.00;100142.75;5073784;28;20039;-70
2023/02/05 00:41:13;;;;;;;8.48;6.05;;;;;;;2.84;100.00;100113.28;5071408;28;20032;-69
2023/02/05 00:43:39;;;;;;;8.65;6.40;;;;;;;3.18;100.00;100148.59;5072247;28;20024;-70
2023/02/05 00:49:26;;;;;;;6.70;4.83;;;;;;;3.04;100.00;100142.69;5073734;28;20541;-70
2023/02/05 00:51:52;;;;;;;9.90;6.80;;;;;;;2.96;100.00;100135.94;5071510;28;20278;-70
2023/02/05 00:54:17;;;;;;;10.50;7.70;;;;;;;3.21;100.00;100181.25;5077814;28;20093;-70
2023/02/05 01:00:05;;;;;;;13.40;9.90;;;;;;;3.13;100.00;100215.53;5093806;28;20077;-70
2023/02/05 01:05:53;;;;;;;10.80;8.93;;;;;;;3.33;100.00;100219.00;5093569;28;20162;-70
2023/02/05 01:08:18;;;;;;;15.93;10.18;;;;;;;3.12;100.00;100221.41;5093277;28;20111;-69
2023/02/05 01:10:45;;;;;;;9.90;6.75;;;;;;;3.29;100.00;100217.31;5093320;28;20020;-69
2023/02/05 01:13:11;;;;;;;7.10;5.18;;;;;;;2.49;100.00;100123.13;5093079;28;20034;-69
2023/02/05 01:18:58;;;;;;;3.78;3.22;;;;;;;3.19;100.00;100214.75;5093404;28;20509;-68
2023/02/05 01:21:24;;;;;;;4.18;3.40;;;;;;;3.03;100.00;100206.25;5092690;28;20024;-69
2023/02/05 01:23:50;;;;;;;3.90;3.00;;;;;;;2.77;100.00;100145.06;5092490;28;20085;-70
2023/02/05 01:26:17;;;;;;;3.72;2.92;;;;;;;2.69;100.00;100146.69;5092346;28;20024;-70
2023/02/05 01:28:42;;;;;;;2.92;2.53;;;;;;;2.72;100.00;100156.72;5093137;28;20523;-70
2023/02/05 01:31:07;;;;;;;3.72;2.60;;;;;;;3.27;100.00;100259.16;5092664;28;20110;-70
2023/02/05 01:33:33;;;;;;;3.95;2.97;;;;;;;3.01;100.00;100202.91;5092647;28;20073;-70
2023/02/05 01:35:58;;;;;;;4.55;3.45;;;;;;;3.16;100.00;100249.88;5092768;28;20031;-70
2023/02/05 01:38:24;;;;;;;3.97;3.08;;;;;;;3.12;100.00;100228.94;5092485;28;20084;-70
2023/02/05 01:40:49;;;;;;;4.07;2.90;;;;;;;2.57;100.00;100160.00;5092876;28;20385;-70
2023/02/05 01:43:16;;;;;;;4.07;2.97;;;;;;;2.65;100.00;100155.84;5091826;28;20173;-70
2023/02/05 01:46:21;;;;;;;4.07;3.03;;;;;;;3.00;100.00;100243.94;5092655;28;20035;-70
2023/02/05 01:48:52;;;;;;;4.03;2.22;;;;;;;3.06;100.00;100261.53;5088355;28;20039;-70
2023/02/05 01:54:44;;;;;;;2.72;2.00;;;;;;;3.00;100.00;100265.69;5092555;28;20066;-70
2023/02/05 02:00:31;;;;;;;1.60;0.93;;;;;;;2.94;100.00;100278.19;5092706;28;20104;-70
2023/02/05 02:06:19;;;;;;;1.30;0.80;;;;;;;2.95;100.00;100269.84;5092566;28;20543;-70
2023/02/05 02:08:44;;;;;;;0.80;0.70;;;;;;;2.87;100.00;100282.34;5091591;28;20032;-70
2023/02/05 02:11:12;;;;;;;1.20;0.80;;;;;;;2.85;100.00;100278.13;5092438;28;20371;-70
2023/02/05 02:13:38;;;;;;;1.67;1.00;;;;;;;2.93;100.00;100267.28;5073675;28;20032;-71
2023/02/05 02:16:05;;;;;;;2.60;1.00;;;;;;;2.41;100.00;100190.81;5089640;28;20118;-70
2023/02/05 02:18:33;;;;;;;1.60;0.90;;;;;;;2.25;100.00;100196.50;5092217;28;20066;-70
2023/02/05 02:24:30;;;;;;;1.25;0.70;;;;;;;2.86;100.00;100303.22;5092047;28;20138;-70
2023/02/05 02:27:04;;;;;;;1.17;0.70;;;;;;;2.77;100.00;100300.66;5073761;28;20385;-70
2023/02/05 02:29:35;;;;;;;0.95;0.63;;;;;;;2.78;100.00;100317.38;5091808;28;20020;-70
2023/02/05 02:32:08;;;;;;;0.75;0.50;;;;;;;2.69;100.00;100282.19;5092259;28;20038;-70
2023/02/05 02:34:47;;;;;;;0.60;0.50;;;;;;;1.83;100.00;100181.06;5073799;28;20055;-70
2023/02/05 02:40:41;;;;;;;1.00;0.70;;;;;;;2.07;100.00;100210.53;5092144;28;20111;-70
2023/02/05 02:43:16;;;;;;;0.93;0.70;;;;;;;2.50;100.00;100275.31;5073754;28;20139;-70
2023/02/05 02:46:19;;;;;;;1.13;0.75;;;;;;;2.53;100.00;100290.41;5091761;28;20108;-70
2023/02/05 02:48:46;;;;;;;1.75;1.08;;;;;;;1.95;100.00;100193.72;5087360;28;20050;-70
2023/02/05 02:54:35;;;;;;;1.67;1.10;;;;;;;2.57;100.00;100315.53;5092004;28;20051;-70
2023/02/05 02:57:05;;;;;;;1.70;1.00;;;;;;;2.06;100.00;100242.28;5091350;28;20269;-70
2023/02/05 02:59:35;;;;;;;1.30;1.10;;;;;;;2.36;100.00;100304.44;5091498;28;20033;-71
2023/02/05 03:05:23;;;;;;;1.30;1.00;;;;;;;2.36;100.00;100342.03;5092065;28;20078;-70
2023/02/05 03:11:13;;;;;;;1.63;1.13;;;;;;;2.55;100.00;100339.78;5091948;28;20073;-70
2023/02/05 03:13:39;;;;;;;1.92;1.50;;;;;;;1.99;100.00;100252.22;5090842;28;20534;-70
2023/02/05 03:16:05;;;;;;;2.40;1.40;;;;;;;1.82;100.00;100246.19;5091566;28;20032;-70
2023/02/05 03:18:31;;;;;;;1.90;1.50;;;;;;;1.74;100.00;100241.09;5092048;28;20081;-70
2023/02/05 03:21:04;;;;;;;2.40;1.70;;;;;;;1.91;100.00;100266.34;5091346;28;20028;-70
2023/02/05 03:23:30;;;;;;;1.75;1.40;;;;;;;1.88;100.00;100272.19;5070332;28;20026;-70
2023/02/05 03:25:55;;;;;;;2.55;1.83;;;;;;;1.73;100.00;100287.00;5090805;28;20090;-70
2023/02/05 03:28:22;;;;;;;5.90;2.33;;;;;;;2.09;100.00;100357.63;5095502;28;20028;-70
2023/02/05 03:30:53;;;;;;;2.80;2.03;;;;;;;2.13;100.00;100363.53;5095415;28;20057;-70
2023/02/05 03:33:40;;;;;;;2.97;2.00;;;;;;;2.13;100.00;100371.91;5076630;28;20082;-70
2023/02/05 03:36:16;;;;;;;3.65;2.50;;;;;;;2.06;100.00;100366.78;5095291;28;20020;-70
2023/02/05 03:39:10;;;;;;;3.63;2.22;;;;;;;1.97;100.00;100369.16;5095121;28;20417;-70
2023/02/05 03:45:21;;;;;;;2.55;2.30;;;;;;;1.46;100.00;100275.00;5095239;28;20027;-70
2023/02/05 03:48:09;;;;;;;4.57;2.38;;;;;;;2.07;100.00;100376.84;5076695;28;20114;-69
2023/02/05 03:50:43;;;;;;;3.50;2.55;;;;;;;1.89;100.00;100388.28;5076443;28;20032;-70
2023/02/05 03:53:16;;;;;;;3.00;2.50;;;;;;;1.91;100.00;100386.63;5094857;28;20146;-70
2023/02/05 03:59:12;;;;;;;4.35;3.15;;;;;;;1.86;100.00;100373.22;5094965;28;20125;-70
2023/02/05 04:01:38;;;;;;;4.50;3.30;;;;;;;1.38;100.00;100300.75;5094531;28;20398;-70
2023/02/05 04:04:03;;;;;;;3.65;2.72;;;;;;;1.57;100.00;100373.66;5094145;28;20029;-70
2023/02/05 04:09:50;;;;;;;4.82;3.33;;;;;;;1.56;100.00;100373.63;5094523;28;20551;-70
2023/02/05 04:15:37;;;;;;;4.88;3.40;;;;;;;1.13;100.00;100297.03;5094672;28;20051;-70
2023/02/05 04:18:03;;;;;;;4.70;3.38;;;;;;;0.65;100.00;100262.09;5075925;28;20462;-70
2023/02/05 04:20:28;;;;;;;4.57;3.47;;;;;;;1.94;100.00;100421.78;5093853;28;20028;-70
2023/02/05 04:22:53;;;;;;;4.53;3.40;;;;;;;0.73;100.00;100260.56;5075890;28;20511;-70
2023/02/05 04:28:40;;;;;;;3.67;2.87;;;;;;;1.03;100.00;100334.44;5094532;28;20042;-70
2023/02/05 04:31:11;;;;;;;4.85;3.75;;;;;;;1.03;100.00;100359.47;5093638;28;20135;-70
2023/02/05 04:33:36;;;;;;;4.93;3.85;;;;;;;1.33;100.00;100415.84;5075920;28;20020;-71
2023/02/05 04:39:24;;;;;;;5.93;4.17;;;;;;;1.23;100.00;100399.00;5093354;28;20084;-70
2023/02/05 04:41:49;;;;;;;4.18;3.50;;;;;;;0.89;100.00;100352.53;5093940;28;20286;-71
2023/02/05 04:44:14;;;;;;;4.90;3.85;;;;;;;1.38;100.00;100439.31;5093313;28;20089;-71
2023/02/05 04:46:40;;;;;;;6.97;4.30;;;;;;;1.39;100.00;100423.47;5093306;28;20051;-70
2023/02/05 04:49:05;;;;;;;4.97;3.80;;;;;;;1.46;100.00;100451.94;5093871;28;20024;-70
2023/02/05 04:51:30;;;;;;;5.07;3.95;;;;;;;0.97;100.00;100366.88;5075154;28;20047;-70
2023/02/05 04:53:56;;;;;;;4.53;3.70;;;;;;;0.48;100.00;100302.63;5092793;28;20110;-70
2023/02/05 04:59:43;;;;;;;6.53;4.20;;;;;;;1.08;100.00;100415.41;5093874;28;20410;-70
2023/02/05 05:02:08;;;;;;;7.78;5.10;;;;;;;0.68;100.00;100373.84;5093563;28;20032;-71
2023/02/05 05:04:35;;;;;;;6.13;4.55;;;;;;;1.31;100.00;100445.03;5101545;28;20024;-70
2023/02/05 05:10:22;;;;;;;3.75;3.00;;;;;;;1.31;100.00;100474.22;5093621;28;20034;-70
2023/02/05 05:12:48;;;;;;;7.70;4.70;;;;;;;0.32;100.00;100324.03;5092631;28;20463;-70
2023/02/05 05:15:13;;;;;;;5.35;4.13;;;;;;;0.96;100.00;100417.72;5075185;28;20027;-70
2023/02/05 05:17:38;;;;;;;5.32;4.18;;;;;;;1.05;100.00;100473.75;5075024;28;20028;-71
2023/02/05 05:20:04;;;;;;;5.35;4.18;;;;;;;1.15;100.00;100497.31;5092534;28;20505;-70
2023/02/05 05:22:29;;;;;;;5.55;4.20;;;;;;;1.00;100.00;100469.50;5091869;28;20055;-70
2023/02/05 05:28:17;;;;;;;5.73;4.33;;;;;;;0.99;100.00;100512.88;5093327;28;20448;-71
2023/02/05 05:30:44;;;;;;;5.18;4.20;;;;;;;1.04;100.00;100518.78;5092618;28;20028;-70
2023/02/05 05:33:10;;;;;;;7.05;4.55;;;;;;;0.38;100.00;100430.78;5092973;28;20024;-71
2023/02/05 05:43:45;;;;;;;5.18;4.13;;;;;;;0.73;100.00;100513.19;5093090;28;20027;-71
2023/02/05 05:44:29;;;;;;;8.02;3.92;;;;;;;0.98;100.00;100549.56;5092503;28;20047;-70
2023/02/05 05:46:55;;;;;;;4.07;3.03;;;;;;;-0.28;100.00;100412.75;5092943;28;20020;-71
2023/02/05 05:49:20;;;;;;;5.50;3.70;;;;;;;0.53;100.00;100511.13;5092028;28;20059;-70
2023/02/05 05:51:45;;;;;;;5.60;3.40;;;;;;;0.03;100.00;100459.19;5074161;28;20039;-70
2023/02/05 05:54:11;;;;;;;4.90;3.88;;;;;;;0.65;100.00;100552.22;5092877;28;20454;-70
2023/02/05 05:56:37;;;;;;;4.90;3.67;;;;;;;-0.20;100.00;100421.25;5091919;28;20028;-70
2023/02/05 05:59:03;;;;;;;4.57;3.53;;;;;;;0.30;100.00;100479.81;5092196;28;20024;-70
2023/02/05 06:01:28;;;;;;;6.07;3.63;;;;;;;0.49;100.00;100540.22;5091934;28;20032;-70
2023/02/05 06:03:53;;;;;;;5.15;3.88;;;;;;;0.00;100.00;100488.31;5074335;28;20020;-70
2023/02/05 06:06:19;;;;;;;4.57;2.95;;;;;;;0.45;100.00;100562.63;5092334;28;20470;-71
2023/02/05 06:08:44;;;;;;;5.22;3.45;;;;;;;0.53;100.00;100571.13;5091964;28;20031;-70
2023/02/05 06:11:10;;;;;;;4.53;3.25;;;;;;;0.29;100.00;100528.09;5092241;28;20024;-70
2023/02/05 06:16:57;;;;;;;4.43;3.70;;;;;;;0.56;100.00;100582.03;5092189;28;20035;-70
2023/02/05 06:22:44;;;;;;;4.50;2.95;;;;;;;0.62;100.00;100613.84;5092146;28;20119;-69
2023/02/05 06:25:10;;;;;;;5.78;4.10;;;;;;;0.68;100.00;100616.47;5091731;28;20055;-72
2023/02/05 06:27:35;;;;;;;6.25;4.20;;;;;;;0.69;100.00;100628.19;5092504;28;20474;-72
2023/02/05 06:30:00;;;;;;;6.00;4.10;;;;;;;1.31;100.00;100630.31;5092014;28;20035;-73
2023/02/05 06:32:26;;;;;;;4.40;3.03;;;;;;;0.59;100.00;100594.63;5092999;28;20027;-73
2023/02/05 06:34:51;;;;;;;6.25;4.55;;;;;;;0.63;100.00;100610.53;5092742;28;20035;-73
2023/02/05 06:37:17;;;;;;;6.22;3.80;;;;;;;0.71;100.00;100627.38;5073892;28;20482;-73
2023/02/05 06:39:42;;;;;;;4.25;3.15;;;;;;;0.72;100.00;100628.25;5092431;28;20024;-71
2023/02/05 06:42:08;;;;;;;6.03;3.78;;;;;;;0.60;100.00;100642.97;5091711;28;20067;-70
2023/02/05 06:44:33;;;;;;;5.82;4.07;;;;;;;0.78;100.00;100624.22;5073141;28;20035;-68
2023/02/05 06:47:00;;;;;;;7.20;4.47;;;;;;;0.92;100.00;100642.03;5092092;28;20024;-69
2023/02/05 06:49:25;;;;;;;6.13;3.60;;;;;;;0.21;100.00;100549.56;5091951;28;20031;-70
2023/02/05 06:51:51;;;;;;;5.18;3.03;;;;;;;0.55;100.00;100619.53;5091968;28;20028;-71
2023/02/05 06:54:16;;;;;;;8.68;4.60;;;;;;;0.72;100.00;100630.75;5091197;28;20032;-70
2023/02/05 06:56:42;;;;;;;4.95;3.50;;;;;;;0.49;100.00;100599.38;5073145;28;20096;-69
2023/02/05 06:59:08;;;;;;;6.38;3.88;;;;;;;0.17;100.00;100555.31;5091391;28;20381;-70
2023/02/05 07:01:34;;;;;;;5.25;3.22;;;;;;;0.51;100.00;100617.78;5092124;28;20024;-70
2023/02/05 07:03:59;;;;;;;5.03;3.35;;;;;;;0.84;100.00;100641.88;5095818;28;20031;-69
2023/02/05 07:06:25;;;;;;;6.38;3.75;;;;;;;0.94;100.00;100640.41;5096076;28;20371;-69
2023/02/05 07:12:12;;;;;;;7.43;5.27;;;;;;;0.90;100.00;100618.63;5095868;28;20177;-69
2023/02/05 07:14:39;;;;;;;6.72;4.63;;;;;;;0.44;100.00;100566.78;5095028;28;20356;-70
2023/02/05 07:17:05;;;;;;;5.70;3.92;;;;;;;0.41;100.00;100576.72;5095776;28;20024;-69
2023/02/05 07:22:52;;;;;;;6.88;4.13;;;;;;;1.25;100.00;100646.91;5095346;28;20034;-69
2023/02/05 07:25:17;;;;;;;7.20;4.32;;;;;;;1.11;100.00;100644.09;5094327;28;20028;-68
2023/02/05 07:27:42;;;;;;;5.97;4.13;;;;;;;0.98;100.00;100578.75;5094666;28;20023;-69
2023/02/05 07:33:29;;;;;;;5.32;3.28;;;;;;;0.65;100.00;100557.22;5095481;28;20111;-70
2023/02/05 07:35:55;;;;;;;5.88;4.40;;;;;;;1.85;100.00;100649.69;5076213;28;20476;-69
2023/02/05 07:38:20;;;;;;;4.65;4.03;;;;;;;1.36;100.00;100652.94;5095231;28;20028;-69
2023/02/05 07:44:07;;;;;;;5.13;3.60;;;;;;;1.28;100.00;100636.94;5095030;28;20072;-69
2023/02/05 07:46:33;;;;;;;5.90;3.53;;;;;;;1.61;100.00;100647.59;5076468;28;20024;-69
2023/02/05 07:48:58;;;;;;;5.53;3.83;;;;;;;0.73;100.00;100579.91;5095371;28;20043;-68
2023/02/05 07:54:46;;;;;;;5.35;3.83;;;;;;;0.98;100.00;100589.59;5095046;28;20140;-70
2023/02/05 07:57:11;;;;;;;4.63;3.35;;;;;;;1.11;100.00;100651.59;5094556;28;20039;-70
2023/02/05 07:59:37;;;;;;;4.63;3.75;;;;;;;1.36;100.00;100666.31;5075882;28;20028;-68
2023/02/05 08:05:24;;;;;;;6.23;4.07;;;;;;;1.23;100.00;100678.56;5094791;28;20146;-68
2023/02/05 08:07:49;;;;;;;5.25;3.55;;;;;;;1.24;100.00;100688.59;5076062;28;20123;-68
2023/02/05 08:10:15;;;;;;;6.32;4.65;;;;;;;1.30;100.00;100665.34;5093929;28;20043;-68
2023/02/05 08:16:06;;;;;;;5.57;3.60;;;;;;;1.11;100.00;100688.31;5094292;28;20488;-67
2023/02/05 08:18:32;;;;;;;4.68;3.72;;;;;;;1.51;100.00;100673.28;5092962;28;20104;-69
2023/02/05 08:20:57;;;;;;;4.85;3.60;;;;;;;0.89;100.00;100621.97;5075880;28;20024;-69
2023/02/05 08:26:45;;;;;;;5.00;3.58;;;;;;;0.57;100.00;100630.41;5094429;28;20062;-69
2023/02/05 08:32:32;;;;;;;5.63;3.60;;;;;;;1.33;100.00;100710.47;5094337;28;20043;-67
2023/02/05 08:34:58;;;;;;;5.88;3.97;;;;;;;1.76;100.00;100721.38;5075306;28;20020;-67
2023/02/05 08:37:24;;;;;;;5.65;4.00;;;;;;;1.17;100.00;100618.34;5075927;28;20531;-68
2023/02/05 08:43:11;;;;;;;6.68;3.67;;;;;;;1.64;100.00;100696.06;5093814;28;20081;-68
2023/02/05 08:45:36;;;;;;;5.50;3.63;;;;;;;1.48;100.00;100706.63;5093659;28;20450;-68
2023/02/05 08:48:02;;;;;;;6.20;3.60;;;;;;;1.41;100.00;100661.38;5093941;28;20020;-67
2023/02/05 08:50:28;;;;;;;6.20;4.28;;;;;;;1.90;100.00;100660.66;5093329;28;20023;-68
2023/02/05 08:52:53;;;;;;;5.63;3.40;;;;;;;1.09;100.00;100633.19;5093074;28;20118;-68
2023/02/05 08:55:19;;;;;;;4.47;3.10;;;;;;;1.41;100.00;100638.84;5075800;28;20043;-68
2023/02/05 08:57:45;;;;;;;6.10;3.40;;;;;;;1.36;100.00;100640.44;5093554;28;20391;-68
2023/02/05 09:00:11;;;;;;;3.97;3.13;;;;;;;1.64;100.00;100665.19;5093619;28;20034;-68
2023/02/05 09:02:36;;;;;;;5.13;3.13;;;;;;;2.00;100.00;100700.09;5092928;28;20123;-68
2023/02/05 09:05:02;;;;;;;4.15;2.90;;;;;;;1.61;100.00;100657.59;5093235;28;20118;-67
2023/02/05 09:07:29;;;;;;;4.43;2.90;;;;;;;1.86;100.00;100755.00;5093475;28;20054;-69
2023/02/05 09:09:55;;;;;;;4.28;3.13;;;;;;;1.88;100.00;100682.34;5093546;28;20534;-68
2023/02/05 09:12:20;;;;;;;4.68;2.90;;;;;;;1.87;100.00;100680.63;5092950;28;20118;-69
2023/02/05 09:18:07;;;;;;;3.40;2.50;;;;;;;2.33;100.00;100750.84;5093374;28;20026;-68
2023/02/05 09:20:33;;;;;;;3.65;2.65;;;;;;;2.34;100.00;100750.00;5092407;28;20028;-68
2023/02/05 09:22:59;;;;;;;4.95;2.90;;;;;;;1.70;100.00;100653.59;5093168;28;20024;-68
2023/02/05 09:25:24;;;;;;;5.20;2.92;;;;;;;2.12;100.00;100743.78;5092467;28;20027;-69
2023/02/05 09:27:50;;;;;;;5.25;3.20;;;;;;;2.09;100.00;100678.53;5074596;28;20464;-67
2023/02/05 09:30:15;;;;;;;5.20;2.72;;;;;;;2.41;100.00;100754.34;5092376;28;20034;-68
2023/02/05 09:32:41;;;;;;;6.05;2.70;;;;;;;2.26;100.00;100709.75;5092796;28;20038;-68
2023/02/05 09:35:06;;;;;;;4.22;2.58;;;;;;;2.98;100.00;100721.78;5092531;28;20103;-68
2023/02/05 09:37:32;;;;;;;3.67;2.63;;;;;;;2.45;100.00;100725.97;5092564;28;20031;-68
2023/02/05 09:43:55;;;;;;;4.88;2.53;;;;;;;2.44;100.00;100731.78;5092647;28;20043;-68
2023/02/05 09:49:45;;;;;;;2.78;2.03;;;;;;;2.40;100.00;100725.88;5100697;28;20489;-69
2023/02/05 09:52:19;;;;;;;2.92;2.05;;;;;;;3.11;100.00;100727.00;5092477;28;20023;-69
2023/02/05 09:54:51;;;;;;;4.50;2.55;;;;;;;2.67;100.00;100725.50;5092393;28;20040;-67
2023/02/05 10:00:45;;;;;;;4.70;2.50;;;;;;;2.68;100.00;100727.19;5092702;28;20492;-68
2023/02/05 10:03:44;;;;;;;4.15;2.70;;;;;;;2.48;100.00;100736.03;5073878;28;20385;-70
2023/02/05 10:06:09;;;;;;;3.63;2.58;;;;;;;2.63;100.00;100739.66;5073711;28;20049;-70
2023/02/05 10:08:48;;;;;;;4.05;2.50;;;;;;;2.40;100.00;100743.44;5074052;28;20118;-70
2023/02/05 10:11:41;;;;;;;3.17;2.20;;;;;;;1.95;100.00;100726.75;5092647;28;20043;-70
2023/02/05 10:14:10;;;;;;;2.60;2.10;;;;;;;2.10;100.00;100735.38;5073839;28;20024;-70
2023/02/05 10:16:47;;;;;;;3.90;2.30;;;;;;;2.69;100.00;100730.53;5073680;28;20035;-69
2023/02/05 10:19:33;;;;;;;3.67;2.13;;;;;;;1.94;100.00;100684.97;5092172;28;20596;-70
2023/02/05 10:25:34;;;;;;;4.35;2.38;;;;;;;2.74;100.00;100764.06;5092155;28;20073;-71
2023/02/05 10:31:38;;;;;;;2.85;1.98;;;;;;;2.49;100.00;100782.91;5092312;28;20031;-69
2023/02/05 10:34:15;;;;;;;3.35;2.08;;;;;;;2.84;100.00;100773.44;5092020;28;20506;-70
2023/02/05 10:40:11;;;;;;;4.43;2.55;;;;;;;2.37;100.00;100758.47;5092213;28;20035;-70
2023/02/05 10:42:42;;;;;;;3.58;2.40;;;;;;;1.66;100.00;100669.41;5091712;28;20056;-70
2023/02/05 10:45:22;;;;;;;2.47;1.80;;;;;;;2.75;100.00;100748.22;5092172;28;20024;-70
2023/02/05 10:48:23;;;;;;;3.72;2.90;;;;;;;3.07;100.00;100762.09;5073854;28;20024;-70
2023/02/05 10:54:26;;;;;;;2.33;1.47;;;;;;;2.76;100.00;100785.88;5091445;28;20035;-70
2023/02/05 10:56:53;;;;;;;3.88;2.60;;;;;;;2.50;100.00;100794.63;5091990;28;20278;-70
2023/02/05 11:02:45;;;;;;;4.28;2.58;;;;;;;1.81;100.00;100736.50;5091778;28;20039;-70
2023/02/05 11:05:18;;;;;;;3.78;2.40;;;;;;;2.01;100.00;100799.56;5072897;28;20024;-70
2023/02/05 11:07:49;;;;;;;4.32;2.80;;;;;;;2.06;100.00;100786.28;5073718;28;20119;-70
2023/02/05 11:13:40;;;;;;;5.18;3.00;;;;;;;2.37;100.00;100790.22;5091660;28;20089;-70
2023/02/05 11:16:07;;;;;;;5.28;3.20;;;;;;;2.94;100.00;100800.38;5091281;28;20063;-70
2023/02/05 11:18:42;;;;;;;4.93;3.10;;;;;;;2.99;100.00;100792.09;5091383;28;20024;-70
2023/02/05 11:21:08;;;;;;;5.35;2.88;;;;;;;2.20;100.00;100711.34;5091526;28;20394;-71
2023/02/05 11:23:38;;;;;;;4.30;2.60;;;;;;;2.04;100.00;100794.63;5091623;28;20024;-70
2023/02/05 11:29:25;;;;;;;5.03;2.83;;;;;;;1.74;100.00;100744.72;5091803;28;20502;-71
2023/02/05 11:31:51;;;;;;;6.63;3.40;;;;;;;2.19;100.00;100790.72;5091111;28;20028;-71
2023/02/05 11:34:18;;;;;;;6.80;2.80;;;;;;;2.31;100.00;100797.63;5090838;28;20016;-71
2023/02/05 11:40:18;;;;;;;3.75;2.65;;;;;;;1.68;100.00;100707.84;5091770;28;20069;-71
2023/02/05 11:42:54;;;;;;;4.63;3.22;;;;;;;1.58;100.00;100737.72;5073203;28;20035;-70
2023/02/05 11:45:21;;;;;;;5.05;2.95;;;;;;;1.91;100.00;100806.06;5073137;28;20024;-74
2023/02/05 11:47:47;;;;;;;4.82;3.25;;;;;;;1.85;100.00;100742.41;5092512;28;20024;-71
2023/02/05 11:50:21;;;;;;;4.72;3.00;;;;;;;1.86;100.00;100829.34;5094781;28;20474;-70
2023/02/05 11:56:12;;;;;;;5.47;3.20;;;;;;;2.14;100.00;100851.66;5086667;28;20059;-70
2023/02/05 11:58:37;;;;;;;4.35;2.83;;;;;;;2.02;100.00;100828.84;5076684;28;20036;-70
2023/02/05 12:01:23;;;;;;;5.05;3.10;;;;;;;1.45;100.00;100745.78;5076455;28;20474;-70
2023/02/05 12:04:17;;;;;;;4.63;3.40;;;;;;;1.63;100.00;100731.97;5094756;28;20024;-71
2023/02/05 12:06:51;;;;;;;4.13;2.83;;;;;;;1.63;100.00;100828.84;5093984;28;20059;-69
2023/02/05 12:09:24;;;;;;;4.07;2.67;;;;;;;1.60;100.00;100824.63;5076487;28;20484;-69
2023/02/05 12:15:18;;;;;;;6.00;2.75;;;;;;;1.81;100.00;100838.41;5094559;28;20034;-71
2023/02/05 12:17:52;;;;;;;4.78;3.05;;;;;;;1.68;100.00;100855.69;5094172;28;20027;-71
2023/02/05 12:20:24;;;;;;;5.72;3.00;;;;;;;1.43;100.00;100832.56;5094193;28;20044;-71
2023/02/05 12:26:35;;;;;;;4.97;2.93;;;;;;;1.24;100.00;100830.47;5094566;28;20370;-71
2023/02/05 12:29:13;;;;;;;5.50;2.60;;;;;;;0.93;100.00;100737.97;5075930;28;20024;-70
2023/02/05 12:31:47;;;;;;;4.00;2.55;;;;;;;1.59;100.00;100834.59;5093996;28;20039;-70
2023/02/05 12:34:31;;;;;;;6.65;2.70;;;;;;;1.50;100.00;100841.91;5076131;28;20016;-71
2023/02/05 12:37:06;;;;;;;3.63;2.92;;;;;;;1.44;100.00;100762.50;5093654;28;20023;-71
2023/02/05 12:39:53;;;;;;;6.03;2.88;;;;;;;0.83;100.00;100770.25;5094149;28;20028;-71
2023/02/05 12:42:21;;;;;;;3.78;2.60;;;;;;;1.49;100.00;100842.72;5093874;28;20030;-72
2023/02/05 12:44:52;;;;;;;5.15;3.42;;;;;;;1.88;100.00;100852.78;5093951;28;20092;-71
2023/02/05 12:47:39;;;;;;;3.60;2.75;;;;;;;1.64;100.00;100863.13;5093863;28;20035;-70
2023/02/05 12:50:19;;;;;;;4.07;2.55;;;;;;;1.56;100.00;100862.94;5093986;28;20069;-71
2023/02/05 12:53:02;;;;;;;3.78;2.50;;;;;;;1.47;100.00;100850.22;5093954;28;20024;-71
2023/02/05 12:55:43;;;;;;;3.50;2.50;;;;;;;1.62;100.00;100855.53;5093596;28;20568;-71
2023/02/05 12:58:12;;;;;;;4.45;2.45;;;;;;;1.04;100.00;100759.06;5075470;28;20130;-71
2023/02/05 13:04:01;;;;;;;4.13;2.40;;;;;;;0.91;100.00;100762.09;5093849;28;20046;-71
2023/02/05 13:06:40;;;;;;;4.43;2.42;;;;;;;0.88;100.00;100743.72;5074456;28;20458;-71
2023/02/05 13:09:19;;;;;;;3.83;2.38;;;;;;;1.74;100.00;100842.47;5093485;28;20024;-70
2023/02/05 13:11:54;;;;;;;4.55;2.70;;;;;;;1.92;100.00;100829.47;5075234;28;20028;-70
2023/02/05 13:17:54;;;;;;;3.60;2.67;;;;;;;2.42;100.00;100824.59;5093808;28;20043;-70
2023/02/05 13:29:11;;;;;;;3.75;2.70;;;;;;;1.93;100.00;100821.13;5092970;28;20089;-70
2023/02/05 13:34:58;;;;;;;5.32;2.60;;;;;;;1.38;100.00;100682.22;5093182;28;20055;-71
2023/02/05 13:37:48;;;;;;;5.75;3.38;;;;;;;1.96;100.00;100818.69;5092341;28;20478;-70
2023/02/05 13:44:00;;;;;;;3.78;2.85;;;;;;;1.71;100.00;100800.63;5093131;28;20416;-70
2023/02/05 13:46:45;;;;;;;3.83;2.45;;;;;;;1.94;100.00;100808.59;5074513;28;20168;-70
2023/02/05 13:49:48;;;;;;;2.92;2.08;;;;;;;1.65;100.00;100805.53;5092596;28;20016;-69
2023/02/05 13:55:55;;;;;;;3.77;2.30;;;;;;;1.44;100.00;100779.16;5092711;28;20113;-70
2023/02/05 14:01:50;;;;;;;3.43;2.17;;;;;;;0.59;100.00;100633.78;5092703;28;20035;-70
2023/02/05 14:04:22;;;;;;;3.33;2.10;;;;;;;1.42;100.00;100785.81;5092443;28;20027;-70
2023/02/05 14:07:01;;;;;;;3.10;2.30;;;;;;;1.47;100.00;100781.72;5092286;28;20478;-70
2023/02/05 14:09:43;;;;;;;3.85;2.28;;;;;;;1.54;100.00;100794.44;5092316;28;20023;-70
2023/02/05 14:15:43;;;;;;;3.97;2.63;;;;;;;0.89;100.00;100697.84;5092337;28;20097;-70
2023/02/05 14:18:42;;;;;;;4.03;2.50;;;;;;;1.40;100.00;100775.75;5091874;28;20115;-69
2023/02/05 14:21:28;;;;;;;2.83;2.05;;;;;;;1.33;100.00;100783.94;5092007;28;20020;-70
2023/02/05 14:23:55;;;;;;;4.88;2.38;;;;;;;0.59;100.00;100688.81;5092286;28;20398;-70
2023/02/05 14:26:58;;;;;;;6.25;3.00;;;;;;;1.47;100.00;100800.13;5092099;28;20031;-71
2023/02/05 14:32:45;;;;;;;4.18;2.30;;;;;;;1.35;100.00;100814.88;5092509;28;20042;-71
2023/02/05 14:35:30;;;;;;;3.78;2.50;;;;;;;1.25;100.00;100802.13;5092511;28;20107;-72
2023/02/05 14:38:01;;;;;;;3.95;2.38;;;;;;;-0.02;100.00;100649.81;5077415;28;20025;-71
2023/02/05 14:44:02;;;;;;;3.97;2.30;;;;;;;0.97;100.00;100825.63;5092220;28;20077;-68
2023/02/05 14:46:30;;;;;;;3.45;2.20;;;;;;;0.92;100.00;100829.69;5091703;28;20032;-70
2023/02/05 14:48:58;;;;;;;3.33;2.40;;;;;;;0.96;100.00;100818.97;5090141;28;20104;-70
2023/02/05 14:51:33;;;;;;;3.92;2.60;;;;;;;0.87;100.00;100824.56;5091779;28;20028;-70
2023/02/05 14:54:00;;;;;;;4.90;3.10;;;;;;;0.49;100.00;100724.41;5091808;28;20081;-70
2023/02/05 14:56:53;;;;;;;5.30;3.13;;;;;;;1.41;100.00;100820.00;5091558;28;20055;-70
2023/02/05 14:59:28;;;;;;;4.25;2.90;;;;;;;0.44;100.00;100725.94;5083658;28;20044;-71
2023/02/05 15:01:54;;;;;;;4.68;3.00;;;;;;;0.46;100.00;100734.31;5073433;28;20513;-70
2023/02/05 15:04:51;;;;;;;3.90;2.50;;;;;;;0.94;100.00;100819.72;5092060;28;20028;-71
2023/02/05 15:10:55;;;;;;;4.53;2.53;;;;;;;0.37;100.00;100756.59;5092050;28;20035;-71